Adele Island, Australia
Current Conditions -  °F | °C
As of 9:00 PM on Friday 19 Dec 2014 (Local Time) from YCIN Reporting Station
Clear Clear  
Wind Chill: 88°   Ceiling: Unl
Heat Index: 100°   Visibility: NA
Dew Point: 77°   Wind: 5mph
Humidity: 70%   Direction: 270°W
Pressure: 29.77"   Gusts: NA
Location:  15.5°S, 123.15°E
Report Text: YCIN 191300Z AUTO 27004KT //// // NCD 31/25 Q1008
Loading
Personal Weather Stations






























Interactive Weather Map New forecast layout! Learn more

10-Day Weather Forecast

Advertisements
Track Severe Weather on mobile